Stockett, MT (59480)

6:30 AM MDT on May 24, 2015 (GMT -0600)
MesoWest | | Change Station
CLOSE
Current Station
Personal Weather Station
Location: Monarch, MT
Elevation: 5196 ft
Nearby Weather Stations

Elev 5196 ft 47.14 °N, 110.82 °W | Updated 55 minutes ago

Mostly Cloudy
Mostly Cloudy
39 °F
Feels Like 39 °F
N
2
Wind Variable Wind from SE
Gusts 3.0 mph

Today
High -- | Low -- °F
--% Chance of Precip.
Yesterday
High -- | Low -- °F
Precip. -- in
5:38 AM 9:04 PM
Waxing Crescent, 39% visible
Pressure 30.12 in
Visibility 0.2 miles
Clouds Clear
Windchill 39 °F
Dew Point 37 °F
Humidity 90%
Rainfall in
Snow Depth Not available.
UV 0 out of 12
Pollen 7.10 out of 12
Air Quality Not available.
Flu Activity Sporadic
METAR KGTF 241153Z 00000KT 1/4SM FG CLR 07/06 A3009 RMK AO2 SLP199 70040 T00670061 10106 20039 56001

More Conditions Fewer Conditions

Pressure 30.12 in
Visibility 0.2 miles
Clouds Clear
Windchill 39 °F
Dew Point 37 °F
Humidity 90%
Rainfall in
Snow Depth Not available.
UV 0 out of 12
Pollen 7.10 out of 12
Air Quality Not available.
Flu Activity Sporadic
METAR KGTF 241153Z 00000KT 1/4SM FG CLR 07/06 A3009 RMK AO2 SLP199 70040 T00670061 10106 20039 56001

More Conditions Fewer Conditions

10-Day Weather Forecast

Almanac

Astronomy

May. 24, 2015 Rise Set
Actual Time
Civil Twilight
Nautical Twilight
Astronomical Twilight
Moon
Length of Visible Light
Length of Day
Tomorrow will be .
, % of the Moon is Illuminated

Today's Extremes

State Highs State Lows

Community

WunderPhotos

Upload Photos

1,823,722 photos uploaded!

WunderBlogs® & News

Nearby

Air Quality

  Air Quality AQ Index Pollutant
Not available.

Snow Depth

Station Depth Elevation

Earthquake Activity

City Distance Mag. Time & Date
Minimum magnitude displayed is 2.5.

Coastal Water Temperatures

Place Temperature

Stations

Nearby Weather Stations

Station Location Temp. Windchill Dew Point Humidity Wind Precip. Elev Updated Type